createdAt,value
2016-08-08T00:00:03.715Z,9.62
2016-08-08T00:01:03.727Z,9.63
2016-08-08T00:02:03.716Z,9.6
2016-08-08T00:03:03.699Z,9.49
2016-08-08T00:04:03.695Z,9.55
2016-08-08T00:05:03.694Z,9.48
2016-08-08T00:06:03.682Z,9.53
2016-08-08T00:07:03.700Z,9.6
2016-08-08T00:08:03.688Z,9.65
2016-08-08T00:09:03.681Z,9.62
2016-08-08T00:10:03.676Z,9.55
2016-08-08T00:11:03.670Z,9.67
2016-08-08T00:12:04.325Z,9.63
2016-08-08T00:13:03.625Z,9.56
2016-08-08T00:14:03.632Z,9.49
2016-08-08T00:15:04.308Z,9.58
2016-08-08T00:16:03.611Z,9.56
2016-08-08T00:17:03.619Z,9.49
2016-08-08T00:18:03.585Z,9.58
2016-08-08T00:19:03.606Z,9.62
2016-08-08T00:20:03.587Z,9.65
2016-08-08T00:21:03.573Z,9.62
2016-08-08T00:22:03.589Z,9.52
2016-08-08T00:23:03.580Z,9.5
2016-08-08T00:24:03.562Z,9.52
2016-08-08T00:25:03.542Z,9.45
2016-08-08T00:26:03.539Z,9.44
2016-08-08T00:27:03.552Z,9.48
2016-08-08T00:28:03.550Z,9.53
2016-08-08T00:29:03.525Z,9.35
2016-08-08T00:30:03.521Z,9.34
2016-08-08T00:31:03.510Z,9.3
2016-08-08T00:32:03.524Z,9.27
2016-08-08T00:33:03.517Z,9.34
2016-08-08T00:34:03.487Z,9.32
2016-08-08T00:35:03.482Z,9.37
2016-08-08T00:36:03.469Z,9.48
2016-08-08T00:37:03.489Z,9.42
2016-08-08T00:38:03.475Z,9.6
2016-08-08T00:39:03.448Z,9.62
2016-08-08T00:40:03.455Z,9.62
2016-08-08T00:41:03.449Z,9.59
2016-08-08T00:42:03.455Z,9.44
2016-08-08T00:43:03.439Z,9.45
2016-08-08T00:44:03.421Z,9.48
2016-08-08T00:45:03.426Z,9.41
2016-08-08T00:46:04.113Z,9.44
2016-08-08T00:47:03.400Z,9.45
2016-08-08T00:48:03.403Z,9.49
2016-08-08T00:49:03.388Z,9.45
2016-08-08T00:50:03.368Z,9.49
2016-08-08T00:51:03.376Z,9.38
2016-08-08T00:52:03.355Z,9.32
2016-08-08T00:53:03.377Z,9.26
2016-08-08T00:54:03.344Z,9.31
2016-08-08T00:55:03.345Z,9.27
2016-08-08T00:56:03.336Z,9.4
2016-08-08T00:57:03.356Z,9.32
2016-08-08T00:58:03.319Z,9.38
2016-08-08T00:59:03.316Z,9.38
2016-08-08T01:00:03.326Z,9.22
2016-08-08T01:01:03.313Z,9.03
2016-08-08T01:02:03.297Z,8.85
2016-08-08T01:03:03.297Z,9
2016-08-08T01:04:03.280Z,9
2016-08-08T01:05:03.279Z,9.01
2016-08-08T01:06:03.979Z,8.86
2016-08-08T01:07:03.281Z,8.86
2016-08-08T01:08:03.265Z,8.94
2016-08-08T01:09:03.255Z,8.89
2016-08-08T01:10:03.259Z,8.86
2016-08-08T01:11:03.261Z,8.97
2016-08-08T01:12:03.239Z,8.98
2016-08-08T01:13:03.250Z,9.06
2016-08-08T01:14:03.240Z,9.04
2016-08-08T01:15:03.213Z,9.01
2016-08-08T01:16:03.208Z,8.93
2016-08-08T01:17:03.212Z,8.78
2016-08-08T01:18:03.183Z,8.76
2016-08-08T01:19:03.198Z,8.71
2016-08-08T01:20:03.871Z,8.83
2016-08-08T01:21:03.172Z,8.76
2016-08-08T01:22:03.166Z,8.76
2016-08-08T01:23:03.864Z,8.73
2016-08-08T01:24:03.865Z,8.61
2016-08-08T01:25:03.158Z,8.61
2016-08-08T01:26:03.142Z,8.5
2016-08-08T01:27:03.135Z,8.57
2016-08-08T01:28:03.143Z,8.5
2016-08-08T01:29:03.131Z,8.46
2016-08-08T01:30:03.117Z,8.43
2016-08-08T01:31:03.109Z,8.5
2016-08-08T01:32:03.103Z,8.64
2016-08-08T01:33:03.103Z,8.57
2016-08-08T01:34:03.115Z,8.55
2016-08-08T01:35:03.074Z,8.55
2016-08-08T01:36:03.052Z,8.73
2016-08-08T01:37:03.052Z,8.68
2016-08-08T01:38:03.047Z,8.75
2016-08-08T01:39:03.033Z,8.75
2016-08-08T01:40:03.045Z,8.73
2016-08-08T01:41:03.037Z,8.54
2016-08-08T01:42:03.018Z,8.65
2016-08-08T01:43:03.019Z,8.7
2016-08-08T01:44:03.005Z,8.71
2016-08-08T01:45:03.024Z,8.61
2016-08-08T01:46:03.021Z,8.63
2016-08-08T01:47:02.999Z,8.67
2016-08-08T01:48:02.991Z,8.67
2016-08-08T01:49:02.993Z,8.68
2016-08-08T01:50:02.992Z,8.71
2016-08-08T01:51:02.970Z,8.65
2016-08-08T01:52:02.967Z,8.82
2016-08-08T01:53:02.949Z,8.88
2016-08-08T01:54:02.945Z,8.96
2016-08-08T01:55:02.928Z,8.97
2016-08-08T01:56:02.929Z,9.06
2016-08-08T01:57:02.939Z,9.06
2016-08-08T01:58:02.921Z,9.17
2016-08-08T01:59:02.901Z,9.08
2016-08-08T02:00:02.923Z,9.03
2016-08-08T02:01:02.900Z,9.03
2016-08-08T02:02:02.900Z,9.06
2016-08-08T02:03:02.886Z,9.04
2016-08-08T02:04:02.887Z,9.06
2016-08-08T02:05:02.870Z,9.15
2016-08-08T02:06:02.859Z,8.98
2016-08-08T02:07:02.866Z,8.93
2016-08-08T02:08:02.847Z,8.86
2016-08-08T02:09:02.849Z,8.78
2016-08-08T02:10:02.845Z,8.79
2016-08-08T02:11:02.842Z,8.76
2016-08-08T02:12:02.806Z,8.73
2016-08-08T02:13:02.804Z,8.7
2016-08-08T02:14:02.810Z,8.61
2016-08-08T02:15:02.786Z,8.55
2016-08-08T02:16:02.803Z,8.49
2016-08-08T02:17:02.799Z,8.45
2016-08-08T02:18:02.790Z,8.52
2016-08-08T02:19:02.759Z,8.52
2016-08-08T02:20:02.769Z,8.6
2016-08-08T02:21:02.775Z,8.64
2016-08-08T02:22:02.743Z,8.73
2016-08-08T02:23:02.764Z,8.68
2016-08-08T02:24:03.437Z,8.75
2016-08-08T02:25:02.722Z,8.73
2016-08-08T02:26:02.723Z,8.67
2016-08-08T02:28:02.719Z,8.65
2016-08-08T02:29:02.683Z,8.58
2016-08-08T02:30:02.683Z,8.63
2016-08-08T02:31:02.709Z,8.63
2016-08-08T02:32:02.671Z,8.58
2016-08-08T02:33:03.370Z,8.6
2016-08-08T02:34:02.665Z,8.55
2016-08-08T02:35:02.654Z,8.64
2016-08-08T02:36:02.661Z,8.54
2016-08-08T02:37:02.651Z,8.64
2016-08-08T02:38:02.631Z,8.52
2016-08-08T02:39:02.633Z,8.52
2016-08-08T02:40:02.615Z,8.54
2016-08-08T02:41:02.636Z,8.61
2016-08-08T02:43:02.611Z,8.65
2016-08-08T02:44:02.582Z,8.71
2016-08-08T02:45:02.588Z,8.6
2016-08-08T02:46:02.596Z,8.6
2016-08-08T02:47:02.565Z,8.61
2016-08-08T02:48:02.561Z,8.61
2016-08-08T02:49:02.567Z,8.7
2016-08-08T02:50:02.547Z,8.67
2016-08-08T02:51:02.536Z,8.63
2016-08-08T02:52:02.521Z,8.63
2016-08-08T02:53:02.518Z,8.68
2016-08-08T02:54:02.538Z,8.71
2016-08-08T02:55:02.510Z,8.7
2016-08-08T02:56:02.509Z,8.75
2016-08-08T02:57:02.484Z,8.75
2016-08-08T02:58:02.509Z,8.73
2016-08-08T02:59:02.469Z,8.65
2016-08-08T03:00:02.475Z,8.7
2016-08-08T03:01:02.487Z,8.68
2016-08-08T03:02:02.452Z,8.71
2016-08-08T03:03:02.455Z,8.65
2016-08-08T03:04:02.455Z,8.67
2016-08-08T03:05:02.450Z,8.75
2016-08-08T03:06:02.441Z,8.79
2016-08-08T03:07:02.420Z,8.78
2016-08-08T03:08:02.421Z,8.57
2016-08-08T03:09:02.400Z,8.58
2016-08-08T03:10:02.408Z,8.6
2016-08-08T03:11:02.399Z,8.52
2016-08-08T03:12:02.389Z,8.5
2016-08-08T03:13:02.399Z,8.47
2016-08-08T03:14:02.384Z,8.63
2016-08-08T03:15:02.377Z,8.61
2016-08-08T03:16:02.372Z,8.6
2016-08-08T03:17:02.352Z,8.76
2016-08-08T03:18:02.365Z,8.68
2016-08-08T03:19:02.352Z,8.76
2016-08-08T03:20:02.339Z,8.71
2016-08-08T03:21:02.334Z,8.64
2016-08-08T03:22:02.337Z,8.68
2016-08-08T03:23:02.314Z,8.7
2016-08-08T03:24:02.307Z,8.64
2016-08-08T03:25:02.309Z,8.61
2016-08-08T03:26:02.297Z,8.54
2016-08-08T03:27:02.991Z,8.57
2016-08-08T03:28:02.287Z,8.57
2016-08-08T03:29:02.261Z,8.71
2016-08-08T03:30:02.267Z,8.63
2016-08-08T03:31:02.949Z,8.65
2016-08-08T03:32:02.267Z,8.67
2016-08-08T03:33:02.245Z,8.6
2016-08-08T03:34:02.237Z,8.71
2016-08-08T03:35:02.217Z,8.67
2016-08-08T03:36:02.206Z,8.63
2016-08-08T03:37:02.213Z,8.73
2016-08-08T03:38:02.192Z,8.71
2016-08-08T03:39:02.206Z,8.71
2016-08-08T03:40:02.191Z,8.71
2016-08-08T03:41:02.174Z,8.61
2016-08-08T03:42:02.183Z,8.65
2016-08-08T03:43:02.166Z,8.68
2016-08-08T03:44:02.153Z,8.64
2016-08-08T03:45:02.152Z,8.68
2016-08-08T03:46:02.135Z,8.65
2016-08-08T03:47:02.137Z,8.71
2016-08-08T03:48:02.139Z,8.73
2016-08-08T03:49:02.113Z,8.71
2016-08-08T03:50:02.111Z,8.75
2016-08-08T03:51:02.097Z,8.7
2016-08-08T03:52:02.105Z,8.73
2016-08-08T03:53:02.087Z,8.7
2016-08-08T03:54:02.059Z,8.75
2016-08-08T03:55:02.066Z,8.76
2016-08-08T03:56:02.046Z,8.8
2016-08-08T03:57:02.074Z,8.68
2016-08-08T03:58:02.048Z,8.63
2016-08-08T03:59:02.038Z,8.6
2016-08-08T04:00:02.045Z,8.65
2016-08-08T04:01:02.015Z,8.61
2016-08-08T04:02:02.025Z,8.64
2016-08-08T04:03:02.009Z,8.8
2016-08-08T04:04:02.002Z,8.78
2016-08-08T04:05:02.008Z,8.82
2016-08-08T04:06:01.979Z,8.71
2016-08-08T04:07:01.971Z,8.73
2016-08-08T04:08:01.969Z,8.68
2016-08-08T04:09:01.946Z,8.61
2016-08-08T04:10:01.971Z,8.61
2016-08-08T04:11:01.927Z,8.75
2016-08-08T04:12:01.917Z,8.75
2016-08-08T04:13:01.920Z,8.68
2016-08-08T04:14:01.913Z,8.76
2016-08-08T04:15:01.903Z,8.75
2016-08-08T04:16:01.897Z,8.82
2016-08-08T04:17:01.903Z,8.71
2016-08-08T04:18:01.891Z,8.83
2016-08-08T04:19:01.875Z,8.86
2016-08-08T04:20:01.851Z,8.68
2016-08-08T04:21:01.856Z,8.76
2016-08-08T04:22:01.847Z,8.79
2016-08-08T04:23:01.835Z,8.75
2016-08-08T04:24:01.852Z,8.8
2016-08-08T04:25:01.832Z,8.76
2016-08-08T04:26:01.817Z,8.83
2016-08-08T04:27:01.819Z,8.76
2016-08-08T04:28:01.803Z,8.8
2016-08-08T04:29:01.810Z,8.82
2016-08-08T04:30:01.791Z,8.83
2016-08-08T04:31:01.795Z,8.75
2016-08-08T04:32:01.758Z,8.8
2016-08-08T04:33:01.784Z,8.86
2016-08-08T04:34:01.753Z,8.83
2016-08-08T04:35:01.762Z,8.89
2016-08-08T04:36:02.441Z,8.91
2016-08-08T04:37:01.725Z,8.88
2016-08-08T04:38:01.714Z,9
2016-08-08T04:39:01.725Z,8.88
2016-08-08T04:40:01.695Z,8.86
2016-08-08T04:41:01.726Z,8.82
2016-08-08T04:42:01.707Z,8.73
2016-08-08T04:43:01.704Z,8.7
2016-08-08T04:44:01.685Z,8.79
2016-08-08T04:45:01.679Z,8.76
2016-08-08T04:46:01.656Z,8.75
2016-08-08T04:47:01.666Z,8.71
2016-08-08T04:48:01.680Z,8.73
2016-08-08T04:49:01.660Z,8.67
2016-08-08T04:50:01.643Z,8.89
2016-08-08T04:51:01.632Z,9.23
2016-08-08T04:52:01.603Z,9.6
2016-08-08T04:53:01.625Z,9.77
2016-08-08T04:54:01.601Z,9.98
2016-08-08T04:55:01.607Z,10.13
2016-08-08T04:56:01.583Z,9.99
2016-08-08T04:57:01.583Z,10.16
2016-08-08T04:58:01.577Z,10.35
2016-08-08T04:59:01.576Z,10.51
2016-08-08T05:00:01.551Z,10.58
2016-08-08T05:01:01.566Z,10.69
2016-08-08T05:02:01.569Z,10.9
2016-08-08T05:03:01.550Z,10.66
2016-08-08T05:04:01.561Z,10.42
2016-08-08T05:05:01.531Z,10.65
2016-08-08T05:06:01.510Z,10.84
2016-08-08T05:07:01.524Z,10.99
2016-08-08T05:08:01.506Z,11.21
2016-08-08T05:09:01.509Z,11.56
2016-08-08T05:10:01.497Z,11.42
2016-08-08T05:11:01.487Z,11.59
2016-08-08T05:12:01.473Z,11.56
2016-08-08T05:13:01.503Z,11.49
2016-08-08T05:14:01.493Z,11.72
2016-08-08T05:15:01.467Z,11.77
2016-08-08T05:16:01.460Z,11.84
2016-08-08T05:17:01.445Z,11.85
2016-08-08T05:18:01.460Z,11.93
2016-08-08T05:19:01.431Z,12.04
2016-08-08T05:20:01.460Z,11.67
2016-08-08T05:21:01.424Z,12.03
2016-08-08T05:22:01.432Z,12.15
2016-08-08T05:23:01.424Z,11.9
2016-08-08T05:24:01.418Z,11.98
2016-08-08T05:25:01.422Z,11.74
2016-08-08T05:26:01.410Z,11.66
2016-08-08T05:27:01.395Z,11.9
2016-08-08T05:28:01.410Z,11.9
2016-08-08T05:29:01.393Z,11.72
2016-08-08T05:30:01.401Z,11.75
2016-08-08T05:31:01.365Z,11.97
2016-08-08T05:32:01.395Z,12.15
2016-08-08T05:33:01.384Z,12.04
2016-08-08T05:34:01.343Z,12.37
2016-08-08T05:35:01.348Z,12.3
2016-08-08T05:36:01.369Z,12.52
2016-08-08T05:37:01.361Z,12.4
2016-08-08T05:38:01.335Z,12.43
2016-08-08T05:39:01.329Z,12.29
2016-08-08T05:40:01.324Z,12.18
2016-08-08T05:41:01.308Z,12.23
2016-08-08T05:42:01.318Z,12.37
2016-08-08T05:43:01.310Z,12.59
2016-08-08T05:44:01.308Z,12.58
2016-08-08T05:45:01.303Z,12.62
2016-08-08T05:46:01.301Z,12.61
2016-08-08T05:47:01.307Z,12.71
2016-08-08T05:48:01.306Z,12.94
2016-08-08T05:49:01.289Z,12.8
2016-08-08T05:50:01.256Z,12.74
2016-08-08T05:51:01.249Z,12.59
2016-08-08T05:52:01.281Z,12.54
2016-08-08T05:53:01.241Z,12.8
2016-08-08T05:54:01.248Z,12.88
2016-08-08T05:55:01.236Z,13.13
2016-08-08T05:56:01.245Z,13.47
2016-08-08T05:57:01.251Z,13.72
2016-08-08T05:58:01.239Z,14.16
2016-08-08T05:59:01.231Z,14.41
2016-08-08T06:00:01.221Z,14.56
2016-08-08T06:01:01.221Z,14.39
2016-08-08T06:02:01.209Z,13.96
2016-08-08T06:03:01.212Z,14.24
2016-08-08T06:04:01.196Z,14.36
2016-08-08T06:05:01.202Z,14.87
2016-08-08T06:06:01.185Z,15.05
2016-08-08T06:07:01.197Z,15.15
2016-08-08T06:08:01.188Z,15.35
2016-08-08T06:09:01.191Z,15.59
2016-08-08T06:10:01.178Z,15.92
2016-08-08T06:11:01.170Z,16.11
2016-08-08T06:12:01.177Z,16.18
2016-08-08T06:13:01.180Z,16.3
2016-08-08T06:14:01.174Z,15.98
2016-08-08T06:15:01.854Z,15.56
2016-08-08T06:16:01.143Z,15.31
2016-08-08T06:17:01.164Z,15
2016-08-08T06:18:01.140Z,14.66
2016-08-08T06:19:01.153Z,14.83
2016-08-08T06:20:01.131Z,15.46
2016-08-08T06:21:01.125Z,15.7
2016-08-08T06:22:01.135Z,15.91
2016-08-08T06:23:01.121Z,16.06
2016-08-08T06:24:01.115Z,16.33
2016-08-08T06:25:01.125Z,16.6
2016-08-08T06:26:01.128Z,16.91
2016-08-08T06:27:01.110Z,17.28
2016-08-08T06:28:01.102Z,17.27
2016-08-08T06:29:01.110Z,16.85
2016-08-08T06:30:01.101Z,16.52
2016-08-08T06:31:01.101Z,16.26
2016-08-08T06:32:01.102Z,16.13
2016-08-08T06:33:01.092Z,16.06
2016-08-08T06:34:01.085Z,16.17
2016-08-08T06:35:01.111Z,16.17
2016-08-08T06:36:01.079Z,16.47
2016-08-08T06:37:01.083Z,16.75
2016-08-08T06:38:01.083Z,16.9
2016-08-08T06:39:01.084Z,17.05
2016-08-08T06:40:01.081Z,17.2
2016-08-08T06:41:01.807Z,17.3
2016-08-08T06:42:01.074Z,17.6
2016-08-08T06:44:01.068Z,17.3
2016-08-08T06:45:01.088Z,17.71
2016-08-08T06:46:01.067Z,17.8
2016-08-08T06:47:01.070Z,17.45
2016-08-08T06:48:01.049Z,17.77
2016-08-08T06:49:01.069Z,18.17
2016-08-08T06:50:01.053Z,18.44
2016-08-08T06:51:01.067Z,18.16
2016-08-08T06:52:01.041Z,17.99
2016-08-08T06:53:01.042Z,18.21
2016-08-08T06:54:01.072Z,18.02
2016-08-08T06:55:01.066Z,18.1
2016-08-08T06:56:01.073Z,18.21
2016-08-08T06:57:01.039Z,18.69
2016-08-08T06:59:01.056Z,19.12
2016-08-08T07:00:01.041Z,19.35
2016-08-08T07:01:01.035Z,19.45
2016-08-08T07:02:01.048Z,19.71
2016-08-08T07:03:01.044Z,19.78
2016-08-08T07:04:01.062Z,19.87
2016-08-08T07:05:01.050Z,19.58
2016-08-08T07:06:01.051Z,19.76
2016-08-08T07:07:01.063Z,19.72
2016-08-08T07:08:01.065Z,19.42
2016-08-08T07:09:01.045Z,19.28
2016-08-08T07:10:01.032Z,19.06
2016-08-08T07:11:01.024Z,18.64
2016-08-08T07:12:01.037Z,18.34
2016-08-08T07:14:01.760Z,19.12
2016-08-08T07:15:01.041Z,19.68
2016-08-08T07:16:01.044Z,20.08
2016-08-08T07:17:01.026Z,20.16
2016-08-08T07:18:01.049Z,20.38
2016-08-08T07:19:01.058Z,20.82
2016-08-08T07:20:01.048Z,20.85
2016-08-08T07:21:01.048Z,20.46
2016-08-08T07:22:01.047Z,20.17
2016-08-08T07:23:01.055Z,20.35
2016-08-08T07:24:01.057Z,20.3
2016-08-08T07:25:01.044Z,20.5
2016-08-08T07:26:01.034Z,20.37
2016-08-08T07:27:01.054Z,20.38
2016-08-08T07:28:01.031Z,20.44
2016-08-08T07:29:01.044Z,20.58
2016-08-08T07:30:01.068Z,20.38
2016-08-08T07:31:01.048Z,20.2
2016-08-08T07:32:01.033Z,20.4
2016-08-08T07:33:01.041Z,20.35
2016-08-08T07:34:01.032Z,20.38
2016-08-08T07:35:01.039Z,20.16
2016-08-08T07:36:01.046Z,20.27
2016-08-08T07:37:01.052Z,20.22
2016-08-08T07:38:01.030Z,20.3
2016-08-08T07:39:01.064Z,20.25
2016-08-08T07:40:01.053Z,20.2
2016-08-08T07:41:01.042Z,20.01
2016-08-08T07:42:01.059Z,19.75
2016-08-08T07:43:01.063Z,19.78
2016-08-08T07:44:01.038Z,20.15
2016-08-08T07:45:01.060Z,20.17
2016-08-08T07:46:01.033Z,20.2
2016-08-08T07:47:01.042Z,20.17
2016-08-08T07:48:01.049Z,20.12
2016-08-08T07:49:01.066Z,20.15
2016-08-08T07:50:01.044Z,20.25
2016-08-08T07:51:01.041Z,20.53
2016-08-08T07:52:01.065Z,20.85
2016-08-08T07:53:01.051Z,21.03
2016-08-08T07:54:01.031Z,21.12
2016-08-08T07:55:01.056Z,21.11
2016-08-08T07:56:01.027Z,21.09
2016-08-08T07:57:01.034Z,21.01
2016-08-08T07:58:01.039Z,21.03
2016-08-08T07:59:01.041Z,20.81
2016-08-08T08:00:01.031Z,20.82
2016-08-08T08:01:01.051Z,20.97
2016-08-08T08:02:01.055Z,21.09
2016-08-08T08:03:01.049Z,21.08
2016-08-08T08:04:01.741Z,21.15
2016-08-08T08:05:01.043Z,21.05
2016-08-08T08:06:01.046Z,21.11
2016-08-08T08:07:01.057Z,20.78
2016-08-08T08:08:01.043Z,20.83
2016-08-08T08:09:01.066Z,20.98
2016-08-08T08:10:01.037Z,21.05
2016-08-08T08:11:01.030Z,20.82
2016-08-08T08:12:01.038Z,20.81
2016-08-08T08:13:01.742Z,20.68
2016-08-08T08:14:01.059Z,20.6
2016-08-08T08:15:01.056Z,20.5
2016-08-08T08:16:01.040Z,20.5
2016-08-08T08:17:01.058Z,20.58
2016-08-08T08:18:01.067Z,20.78
2016-08-08T08:19:01.066Z,20.85
2016-08-08T08:20:01.067Z,21
2016-08-08T08:21:01.033Z,21
2016-08-08T08:22:01.050Z,20.93
2016-08-08T08:23:01.042Z,20.82
2016-08-08T08:24:01.054Z,21.09
2016-08-08T08:25:01.066Z,21.21
2016-08-08T08:26:01.048Z,21.28
2016-08-08T08:27:01.053Z,21.22
2016-08-08T08:28:01.068Z,20.46
2016-08-08T08:29:01.048Z,20.38
2016-08-08T08:30:01.082Z,20.81
2016-08-08T08:31:01.058Z,20.88
2016-08-08T08:32:01.067Z,20.93
2016-08-08T08:33:01.047Z,21.09
2016-08-08T08:34:01.054Z,20.91
2016-08-08T08:35:01.064Z,20.96
2016-08-08T08:36:01.039Z,21.01
2016-08-08T08:37:01.067Z,20.54
2016-08-08T08:38:01.069Z,19.61
2016-08-08T08:39:01.067Z,19.4
2016-08-08T08:40:01.044Z,19.64
2016-08-08T08:41:01.037Z,19.65
2016-08-08T08:42:01.066Z,19.62
2016-08-08T08:43:01.044Z,19.52
2016-08-08T08:44:01.049Z,19.5
2016-08-08T08:45:01.038Z,19.61
2016-08-08T08:46:01.048Z,19.78
2016-08-08T08:47:01.063Z,19.83
2016-08-08T08:48:01.048Z,19.79
2016-08-08T08:49:01.047Z,20.12
2016-08-08T08:50:01.061Z,20.66
2016-08-08T08:51:01.044Z,20.78
2016-08-08T08:52:01.060Z,21.12
2016-08-08T08:53:01.060Z,21.34
2016-08-08T08:54:01.056Z,21.67
2016-08-08T08:55:01.046Z,21.09
2016-08-08T08:56:01.051Z,20.19
2016-08-08T08:57:01.058Z,19.52
2016-08-08T08:58:01.062Z,19.86
2016-08-08T08:59:01.058Z,19.87
2016-08-08T09:00:01.087Z,20.17
2016-08-08T09:01:01.058Z,20.44
2016-08-08T09:02:01.065Z,20.71
2016-08-08T09:03:01.045Z,21
2016-08-08T09:04:01.074Z,21.06
2016-08-08T09:05:01.057Z,21.26
2016-08-08T09:06:01.058Z,21.46
2016-08-08T09:07:01.065Z,21.68
2016-08-08T09:08:01.077Z,21.09
2016-08-08T09:09:01.068Z,20.72
2016-08-08T09:10:01.055Z,20.26
2016-08-08T09:11:01.052Z,20.35
2016-08-08T09:12:01.067Z,20.64
2016-08-08T09:13:01.069Z,20.58
2016-08-08T09:14:01.067Z,21.09
2016-08-08T09:15:01.055Z,20.64
2016-08-08T09:16:01.063Z,20.01
2016-08-08T09:17:01.061Z,19.53
2016-08-08T09:18:01.047Z,19.53
2016-08-08T09:19:01.069Z,19.85
2016-08-08T09:20:01.063Z,20.3
2016-08-08T09:21:01.043Z,20.19
2016-08-08T09:22:01.054Z,20.02
2016-08-08T09:23:01.072Z,19.92
2016-08-08T09:24:01.075Z,19.64
2016-08-08T09:25:01.057Z,19.12
2016-08-08T09:26:01.064Z,18.56
2016-08-08T09:27:01.041Z,18.54
2016-08-08T09:28:01.069Z,18.19
2016-08-08T09:29:01.038Z,18.25
2016-08-08T09:30:01.041Z,18.29
2016-08-08T09:31:01.066Z,18.01
2016-08-08T09:32:01.037Z,18.09
2016-08-08T09:33:01.046Z,18.11
2016-08-08T09:34:01.030Z,17.92
2016-08-08T09:35:01.033Z,17.92
2016-08-08T09:36:01.043Z,17.89
2016-08-08T09:37:01.052Z,18.28
2016-08-08T09:38:01.046Z,18.28
2016-08-08T09:39:01.033Z,18.69
2016-08-08T09:40:01.046Z,19.09
2016-08-08T09:41:01.018Z,19.25
2016-08-08T09:42:01.737Z,19.35
2016-08-08T09:43:01.014Z,19.5
2016-08-08T09:44:01.038Z,19.62
2016-08-08T09:45:01.033Z,19.52
2016-08-08T09:46:01.041Z,19.45
2016-08-08T09:47:01.031Z,19.27
2016-08-08T09:48:01.028Z,19.24
2016-08-08T09:49:01.039Z,18.46
2016-08-08T09:50:01.042Z,18.02
2016-08-08T09:51:01.007Z,18.09
2016-08-08T09:52:01.020Z,18.14
2016-08-08T09:53:01.037Z,18.41
2016-08-08T09:54:01.022Z,18.65
2016-08-08T09:55:01.026Z,18.9
2016-08-08T09:56:01.008Z,18.72
2016-08-08T09:57:00.999Z,19.23
2016-08-08T09:58:01.019Z,19.13
2016-08-08T09:59:01.005Z,19.34
2016-08-08T10:00:00.992Z,19.12
2016-08-08T10:01:01.017Z,18.86
2016-08-08T10:02:01.012Z,19.25
2016-08-08T10:03:01.014Z,19.61
2016-08-08T10:04:01.002Z,19.82
2016-08-08T10:05:01.017Z,19.85
2016-08-08T10:06:00.996Z,19.52
2016-08-08T10:07:01.005Z,18.65
2016-08-08T10:08:01.009Z,17.91
2016-08-08T10:09:00.981Z,16.99
2016-08-08T10:10:00.994Z,17.15
2016-08-08T10:11:00.991Z,17.18
2016-08-08T10:12:00.997Z,17.42
2016-08-08T10:13:00.994Z,17.73
2016-08-08T10:14:01.012Z,17.92
2016-08-08T10:15:00.985Z,17.53
2016-08-08T10:16:00.976Z,17.28
2016-08-08T10:17:00.992Z,17.98
2016-08-08T10:18:00.979Z,16.69
2016-08-08T10:19:00.995Z,16.34
2016-08-08T10:20:00.996Z,16.14
2016-08-08T10:21:00.972Z,15.93
2016-08-08T10:22:00.971Z,16.16
2016-08-08T10:23:00.974Z,16.08
2016-08-08T10:24:00.966Z,16.13
2016-08-08T10:25:00.949Z,15.84
2016-08-08T10:26:00.965Z,15.98
2016-08-08T10:27:00.977Z,16.66
2016-08-08T10:28:00.963Z,17.02
2016-08-08T10:29:00.953Z,16.54
2016-08-08T10:30:00.941Z,15.92
2016-08-08T10:31:00.934Z,16.32
2016-08-08T10:32:00.939Z,16.29
2016-08-08T10:33:00.941Z,16.26
2016-08-08T10:34:00.950Z,16.7
2016-08-08T10:35:00.925Z,16.13
2016-08-08T10:36:00.945Z,15.92
2016-08-08T10:37:00.936Z,16.08
2016-08-08T10:38:00.938Z,16.41
2016-08-08T10:39:00.946Z,16.57
2016-08-08T10:40:00.908Z,17.3
2016-08-08T10:41:00.932Z,17.53
2016-08-08T10:42:00.916Z,17.95
2016-08-08T10:43:00.921Z,18.2
2016-08-08T10:44:00.935Z,18.39
2016-08-08T10:45:00.894Z,18.6
2016-08-08T10:46:00.904Z,18.68
2016-08-08T10:47:01.590Z,18.87
2016-08-08T10:48:00.925Z,18.83
2016-08-08T10:49:00.908Z,18.91
2016-08-08T10:50:00.897Z,18.84
2016-08-08T10:51:00.911Z,18.93
2016-08-08T10:52:00.912Z,18.83
2016-08-08T10:53:00.908Z,18.65
2016-08-08T10:54:00.909Z,18.5
2016-08-08T10:55:00.918Z,18.13
2016-08-08T10:56:00.907Z,18.26
2016-08-08T10:57:00.887Z,17.4
2016-08-08T10:58:00.873Z,16.95
2016-08-08T10:59:00.876Z,17.36
2016-08-08T11:00:00.868Z,16.8
2016-08-08T11:01:00.880Z,16.82
2016-08-08T11:02:00.884Z,16.1
2016-08-08T11:03:00.859Z,15.53
2016-08-08T11:04:00.877Z,14.67
2016-08-08T11:05:00.875Z,14.49
2016-08-08T11:06:00.856Z,14.36
2016-08-08T11:07:00.859Z,14.19
2016-08-08T11:08:00.883Z,14.45
2016-08-08T11:09:00.853Z,14.64
2016-08-08T11:10:00.855Z,15.07
2016-08-08T11:11:00.859Z,15.46
2016-08-08T11:12:00.838Z,15.2
2016-08-08T11:13:00.860Z,14.86
2016-08-08T11:14:00.854Z,14.27
2016-08-08T11:15:00.840Z,14.27
2016-08-08T11:16:00.840Z,13.73
2016-08-08T11:17:00.854Z,13.81
2016-08-08T11:18:00.834Z,13.61
2016-08-08T11:19:00.824Z,13.9
2016-08-08T11:20:00.807Z,14.3
2016-08-08T11:21:00.817Z,13.68
2016-08-08T11:22:00.829Z,13.41
2016-08-08T11:23:00.806Z,13.55
2016-08-08T11:24:00.807Z,13.83
2016-08-08T11:25:00.791Z,14.11
2016-08-08T11:26:00.781Z,13.88
2016-08-08T11:27:00.813Z,13.53
2016-08-08T11:28:00.806Z,13.5
2016-08-08T11:29:00.794Z,13.51
2016-08-08T11:30:00.798Z,13.44
2016-08-08T11:31:00.761Z,13.86
2016-08-08T11:32:00.754Z,14.06
2016-08-08T11:33:00.757Z,14.16
2016-08-08T11:46:41.075Z,14.61
2016-08-08T11:47:41.066Z,14.6
2016-08-08T11:48:41.069Z,14.59
2016-08-08T11:49:41.059Z,14.54
2016-08-08T11:50:41.055Z,14.52
2016-08-08T11:51:41.053Z,14.38
2016-08-08T11:52:41.027Z,14.54
2016-08-08T11:53:41.039Z,14.31
2016-08-08T11:54:41.028Z,14.23
2016-08-08T11:55:41.013Z,14.08
2016-08-08T11:56:41.012Z,14.01
2016-08-08T11:57:40.996Z,14.06
2016-08-08T11:58:41.011Z,13.46
2016-08-08T11:59:41.007Z,14.04
2016-08-08T12:00:41.002Z,13.75
2016-08-08T12:01:40.984Z,13.09
2016-08-08T12:02:40.968Z,13.04
2016-08-08T12:03:40.991Z,13.32
2016-08-08T12:04:40.980Z,13.39
2016-08-08T12:05:41.001Z,13.98
2016-08-08T12:06:40.956Z,13.69
2016-08-08T12:07:40.949Z,12.98
2016-08-08T12:08:40.946Z,13.35
2016-08-08T12:09:40.948Z,13.39
2016-08-08T12:10:40.948Z,13.87
2016-08-08T12:11:40.938Z,13.55
2016-08-08T12:12:40.931Z,14.11
2016-08-08T12:13:40.947Z,14.95
2016-08-08T12:14:40.930Z,15.3
2016-08-08T12:15:40.918Z,15.4
2016-08-08T12:16:40.914Z,15.04
2016-08-08T12:17:40.928Z,15.34
2016-08-08T12:18:40.912Z,15.59
2016-08-08T12:19:40.903Z,16.01
2016-08-08T12:20:40.904Z,15.86
2016-08-08T12:21:40.907Z,15.25
2016-08-08T12:22:40.876Z,14.86
2016-08-08T12:23:40.885Z,14.67
2016-08-08T12:24:40.901Z,14.53
2016-08-08T12:25:40.880Z,14.97
2016-08-08T12:26:40.859Z,14.78
2016-08-08T12:27:40.859Z,14.69
2016-08-08T12:28:40.864Z,15.04
2016-08-08T12:29:40.868Z,14.86
2016-08-08T12:30:40.867Z,14.87
2016-08-08T12:31:40.855Z,14.91
2016-08-08T12:32:40.863Z,14.91
2016-08-08T12:33:40.850Z,14.91
2016-08-08T12:34:40.832Z,14.66
2016-08-08T12:35:40.821Z,14.69
2016-08-08T12:36:40.826Z,15.15
2016-08-08T12:37:40.820Z,15.44
2016-08-08T12:38:40.827Z,15.8
2016-08-08T12:39:40.831Z,15.73
2016-08-08T12:40:40.830Z,15.84
2016-08-08T12:41:40.810Z,15.34
2016-08-08T12:42:40.813Z,15.27
2016-08-08T12:43:40.822Z,14.12
2016-08-08T12:44:40.785Z,14.02
2016-08-08T12:45:40.818Z,14.3
2016-08-08T12:46:40.801Z,13.71
2016-08-08T12:47:40.794Z,13.12
2016-08-08T12:48:40.791Z,13.14
2016-08-08T12:49:40.781Z,13.54
2016-08-08T12:50:40.782Z,14.11
2016-08-08T12:51:40.790Z,14.6
2016-08-08T12:52:40.788Z,14.85
2016-08-08T12:53:40.750Z,14.57
2016-08-08T12:54:40.772Z,14.53
2016-08-08T12:55:40.759Z,14.24
2016-08-08T12:56:40.762Z,14.12
2016-08-08T12:57:40.760Z,14.16
2016-08-08T12:58:40.748Z,14.21
2016-08-08T12:59:40.742Z,13.51
2016-08-08T13:00:40.754Z,13.06
2016-08-08T13:01:40.746Z,13.32
2016-08-08T13:02:40.730Z,14.06
2016-08-08T13:03:40.717Z,14.72
2016-08-08T13:04:40.708Z,14.46
2016-08-08T13:05:40.697Z,13.65
2016-08-08T13:06:40.717Z,13.41
2016-08-08T13:07:40.721Z,13.65
2016-08-08T13:08:40.711Z,13.48
2016-08-08T13:09:40.705Z,13.43
2016-08-08T13:10:40.698Z,13.93
2016-08-08T13:11:40.708Z,14.72
2016-08-08T13:12:40.700Z,15.51
2016-08-08T13:13:40.664Z,15.96
2016-08-08T13:14:40.663Z,16.1
2016-08-08T13:15:40.686Z,16.23
2016-08-08T13:16:40.653Z,16.33
2016-08-08T13:17:40.662Z,16.16
2016-08-08T13:18:40.663Z,15.18
2016-08-08T13:19:40.646Z,14.87
2016-08-08T13:20:41.372Z,15.3
2016-08-08T13:21:41.350Z,14.85
2016-08-08T13:22:41.332Z,14.16